Terminal Aerodrome Forecast
Issued by NWS

Home | Current Version | Previous Version | Text Only | Print | Product List | Glossary On
Versions: 1 2 3 4 5 6 7 8 9 10 11 12
000
FTUS42 KTBW 260528
TAFPGD
TAF
KPGD 260528Z 2606/2706 VRB04KT P6SM SCT060
      TEMPO 2609/2612 6SM BR BKN060
     FM261300 12008KT P6SM SCT035
     FM261900 25007KT P6SM SCT045 SCT100
     FM262100 28007KT P6SM VCSH SCT050 SCT100
     FM270100 VRB05KT P6SM SCT050=

USA.gov is the U.S. government's official web portal to all federal, state and local government web resources and services.